sensor_id;sensor_type;location;lat;lon;timestamp;P1;durP1;ratioP1;P2;durP2;ratioP2
2123;SDS011;1068;52.460;13.528;2024-02-26T00:00:21;8.43;;;7.53;;
2123;SDS011;1068;52.460;13.528;2024-02-26T00:02:48;7.60;;;6.85;;
2123;SDS011;1068;52.460;13.528;2024-02-26T00:05:17;7.53;;;6.72;;
2123;SDS011;1068;52.460;13.528;2024-02-26T00:07:44;8.93;;;6.32;;
2123;SDS011;1068;52.460;13.528;2024-02-26T00:10:12;7.40;;;6.60;;
2123;SDS011;1068;52.460;13.528;2024-02-26T00:12:39;9.93;;;7.53;;
2123;SDS011;1068;52.460;13.528;2024-02-26T00:15:06;9.65;;;7.97;;
2123;SDS011;1068;52.460;13.528;2024-02-26T00:17:33;8.48;;;7.78;;
2123;SDS011;1068;52.460;13.528;2024-02-26T00:20:00;9.45;;;6.80;;
2123;SDS011;1068;52.460;13.528;2024-02-26T00:22:30;8.48;;;7.78;;
2123;SDS011;1068;52.460;13.528;2024-02-26T00:24:57;8.02;;;7.07;;
2123;SDS011;1068;52.460;13.528;2024-02-26T00:27:24;9.50;;;8.40;;
2123;SDS011;1068;52.460;13.528;2024-02-26T00:29:51;8.80;;;8.00;;
2123;SDS011;1068;52.460;13.528;2024-02-26T00:32:18;7.30;;;6.60;;
2123;SDS011;1068;52.460;13.528;2024-02-26T00:34:45;9.82;;;6.50;;
2123;SDS011;1068;52.460;13.528;2024-02-26T00:37:12;8.20;;;7.30;;
2123;SDS011;1068;52.460;13.528;2024-02-26T00:39:40;7.13;;;6.45;;
2123;SDS011;1068;52.460;13.528;2024-02-26T00:42:07;10.43;;;6.45;;
2123;SDS011;1068;52.460;13.528;2024-02-26T00:44:34;6.90;;;6.30;;
2123;SDS011;1068;52.460;13.528;2024-02-26T00:47:01;7.80;;;7.03;;
2123;SDS011;1068;52.460;13.528;2024-02-26T00:49:28;9.68;;;7.80;;
2123;SDS011;1068;52.460;13.528;2024-02-26T00:51:55;7.15;;;6.45;;
2123;SDS011;1068;52.460;13.528;2024-02-26T00:54:22;7.63;;;6.93;;
2123;SDS011;1068;52.460;13.528;2024-02-26T00:56:50;9.23;;;6.85;;
2123;SDS011;1068;52.460;13.528;2024-02-26T00:59:17;7.82;;;6.90;;
2123;SDS011;1068;52.460;13.528;2024-02-26T01:01:44;6.70;;;6.20;;
2123;SDS011;1068;52.460;13.528;2024-02-26T01:04:11;7.68;;;6.40;;
2123;SDS011;1068;52.460;13.528;2024-02-26T01:06:38;7.60;;;6.72;;
2123;SDS011;1068;52.460;13.528;2024-02-26T01:09:05;9.18;;;7.57;;
2123;SDS011;1068;52.460;13.528;2024-02-26T01:11:33;9.70;;;7.85;;
2123;SDS011;1068;52.460;13.528;2024-02-26T01:14:01;6.60;;;6.00;;
2123;SDS011;1068;52.460;13.528;2024-02-26T01:16:28;6.50;;;6.00;;
2123;SDS011;1068;52.460;13.528;2024-02-26T01:18:56;7.03;;;6.43;;
2123;SDS011;1068;52.460;13.528;2024-02-26T01:21:23;9.00;;;6.53;;
2123;SDS011;1068;52.460;13.528;2024-02-26T01:23:51;7.10;;;6.40;;
2123;SDS011;1068;52.460;13.528;2024-02-26T01:26:18;8.68;;;6.25;;
2123;SDS011;1068;52.460;13.528;2024-02-26T01:28:46;17.52;;;7.45;;
2123;SDS011;1068;52.460;13.528;2024-02-26T01:31:15;7.68;;;6.97;;
2123;SDS011;1068;52.460;13.528;2024-02-26T01:33:42;6.72;;;6.13;;
2123;SDS011;1068;52.460;13.528;2024-02-26T01:36:09;7.28;;;6.43;;
2123;SDS011;1068;52.460;13.528;2024-02-26T01:38:35;6.85;;;6.25;;
2123;SDS011;1068;52.460;13.528;2024-02-26T01:41:03;6.32;;;5.70;;
2123;SDS011;1068;52.460;13.528;2024-02-26T01:43:29;6.88;;;6.20;;
2123;SDS011;1068;52.460;13.528;2024-02-26T01:45:57;7.70;;;6.63;;
2123;SDS011;1068;52.460;13.528;2024-02-26T01:48:25;6.95;;;6.35;;
2123;SDS011;1068;52.460;13.528;2024-02-26T01:50:52;7.68;;;6.72;;
2123;SDS011;1068;52.460;13.528;2024-02-26T01:53:19;6.72;;;6.07;;
2123;SDS011;1068;52.460;13.528;2024-02-26T01:55:46;7.38;;;6.70;;
2123;SDS011;1068;52.460;13.528;2024-02-26T01:58:13;6.82;;;6.07;;
2123;SDS011;1068;52.460;13.528;2024-02-26T02:00:40;12.00;;;6.43;;
2123;SDS011;1068;52.460;13.528;2024-02-26T02:03:07;5.78;;;5.38;;
2123;SDS011;1068;52.460;13.528;2024-02-26T02:05:35;7.55;;;6.78;;
2123;SDS011;1068;52.460;13.528;2024-02-26T02:08:06;6.28;;;5.68;;
2123;SDS011;1068;52.460;13.528;2024-02-26T02:10:33;6.50;;;5.90;;
2123;SDS011;1068;52.460;13.528;2024-02-26T02:13:01;6.30;;;5.70;;
2123;SDS011;1068;52.460;13.528;2024-02-26T02:15:28;6.85;;;5.53;;
2123;SDS011;1068;52.460;13.528;2024-02-26T02:17:54;6.53;;;5.60;;
2123;SDS011;1068;52.460;13.528;2024-02-26T02:20:25;5.95;;;5.30;;
2123;SDS011;1068;52.460;13.528;2024-02-26T02:22:53;7.15;;;5.75;;
2123;SDS011;1068;52.460;13.528;2024-02-26T02:25:20;6.65;;;6.05;;
2123;SDS011;1068;52.460;13.528;2024-02-26T02:27:47;6.38;;;5.22;;
2123;SDS011;1068;52.460;13.528;2024-02-26T02:30:14;8.60;;;5.20;;
2123;SDS011;1068;52.460;13.528;2024-02-26T02:32:41;5.57;;;5.03;;
2123;SDS011;1068;52.460;13.528;2024-02-26T02:35:08;5.80;;;5.28;;
2123;SDS011;1068;52.460;13.528;2024-02-26T02:37:36;6.78;;;6.05;;
2123;SDS011;1068;52.460;13.528;2024-02-26T02:40:04;5.82;;;5.20;;
2123;SDS011;1068;52.460;13.528;2024-02-26T02:42:31;4.97;;;4.68;;
2123;SDS011;1068;52.460;13.528;2024-02-26T02:44:58;5.90;;;5.35;;
2123;SDS011;1068;52.460;13.528;2024-02-26T02:47:25;5.95;;;5.35;;
2123;SDS011;1068;52.460;13.528;2024-02-26T02:49:51;6.13;;;5.20;;
2123;SDS011;1068;52.460;13.528;2024-02-26T02:52:18;5.32;;;4.82;;
2123;SDS011;1068;52.460;13.528;2024-02-26T02:54:47;6.57;;;5.13;;
2123;SDS011;1068;52.460;13.528;2024-02-26T02:57:14;6.20;;;5.05;;
2123;SDS011;1068;52.460;13.528;2024-02-26T02:59:41;5.20;;;4.80;;
2123;SDS011;1068;52.460;13.528;2024-02-26T03:02:08;5.38;;;4.88;;
2123;SDS011;1068;52.460;13.528;2024-02-26T03:04:34;5.40;;;4.65;;
2123;SDS011;1068;52.460;13.528;2024-02-26T03:07:01;7.75;;;4.43;;
2123;SDS011;1068;52.460;13.528;2024-02-26T03:09:28;4.75;;;4.35;;
2123;SDS011;1068;52.460;13.528;2024-02-26T03:11:57;6.47;;;5.63;;
2123;SDS011;1068;52.460;13.528;2024-02-26T03:14:23;5.05;;;4.55;;
2123;SDS011;1068;52.460;13.528;2024-02-26T03:16:53;5.32;;;4.78;;
2123;SDS011;1068;52.460;13.528;2024-02-26T03:19:20;7.18;;;4.30;;
2123;SDS011;1068;52.460;13.528;2024-02-26T03:21:47;4.78;;;4.32;;
2123;SDS011;1068;52.460;13.528;2024-02-26T03:24:14;5.18;;;3.70;;
2123;SDS011;1068;52.460;13.528;2024-02-26T03:26:41;4.18;;;3.80;;
2123;SDS011;1068;52.460;13.528;2024-02-26T03:29:10;4.22;;;3.92;;
2123;SDS011;1068;52.460;13.528;2024-02-26T03:31:37;6.22;;;4.70;;
2123;SDS011;1068;52.460;13.528;2024-02-26T03:34:04;3.88;;;3.58;;
2123;SDS011;1068;52.460;13.528;2024-02-26T03:36:31;4.75;;;4.35;;
2123;SDS011;1068;52.460;13.528;2024-02-26T03:38:57;4.83;;;4.50;;
2123;SDS011;1068;52.460;13.528;2024-02-26T03:41:23;4.35;;;3.95;;
2123;SDS011;1068;52.460;13.528;2024-02-26T03:43:51;4.50;;;4.20;;
2123;SDS011;1068;52.460;13.528;2024-02-26T03:46:19;4.90;;;4.50;;
2123;SDS011;1068;52.460;13.528;2024-02-26T03:48:46;5.35;;;4.03;;
2123;SDS011;1068;52.460;13.528;2024-02-26T03:51:13;4.65;;;4.32;;
2123;SDS011;1068;52.460;13.528;2024-02-26T03:53:40;6.22;;;4.30;;
2123;SDS011;1068;52.460;13.528;2024-02-26T03:56:07;5.30;;;4.70;;
2123;SDS011;1068;52.460;13.528;2024-02-26T03:58:34;7.18;;;4.50;;
2123;SDS011;1068;52.460;13.528;2024-02-26T04:01:01;4.10;;;3.70;;
2123;SDS011;1068;52.460;13.528;2024-02-26T04:03:29;4.72;;;4.10;;
2123;SDS011;1068;52.460;13.528;2024-02-26T04:05:56;4.60;;;4.20;;
2123;SDS011;1068;52.460;13.528;2024-02-26T04:08:23;4.60;;;4.20;;
2123;SDS011;1068;52.460;13.528;2024-02-26T04:10:50;6.15;;;4.60;;
2123;SDS011;1068;52.460;13.528;2024-02-26T04:13:17;5.55;;;4.53;;
2123;SDS011;1068;52.460;13.528;2024-02-26T04:15:44;4.30;;;3.90;;
2123;SDS011;1068;52.460;13.528;2024-02-26T04:18:12;8.85;;;4.47;;
2123;SDS011;1068;52.460;13.528;2024-02-26T04:20:40;6.88;;;5.25;;
2123;SDS011;1068;52.460;13.528;2024-02-26T04:23:07;4.70;;;4.30;;
2123;SDS011;1068;52.460;13.528;2024-02-26T04:25:34;4.82;;;4.43;;
2123;SDS011;1068;52.460;13.528;2024-02-26T04:28:01;5.28;;;4.72;;
2123;SDS011;1068;52.460;13.528;2024-02-26T04:30:28;10.43;;;5.75;;
2123;SDS011;1068;52.460;13.528;2024-02-26T04:32:55;5.60;;;4.57;;
2123;SDS011;1068;52.460;13.528;2024-02-26T04:35:22;4.63;;;4.25;;
2123;SDS011;1068;52.460;13.528;2024-02-26T04:37:50;4.38;;;4.03;;
2123;SDS011;1068;52.460;13.528;2024-02-26T04:40:17;5.95;;;4.80;;
2123;SDS011;1068;52.460;13.528;2024-02-26T04:42:44;5.47;;;4.60;;
2123;SDS011;1068;52.460;13.528;2024-02-26T04:45:11;4.70;;;4.25;;
2123;SDS011;1068;52.460;13.528;2024-02-26T04:47:38;4.75;;;4.35;;
2123;SDS011;1068;52.460;13.528;2024-02-26T04:50:05;5.30;;;4.80;;
2123;SDS011;1068;52.460;13.528;2024-02-26T04:52:32;4.03;;;3.58;;
2123;SDS011;1068;52.460;13.528;2024-02-26T04:55:01;5.78;;;4.05;;
2123;SDS011;1068;52.460;13.528;2024-02-26T04:57:28;5.07;;;4.35;;
2123;SDS011;1068;52.460;13.528;2024-02-26T04:59:55;5.85;;;5.22;;
2123;SDS011;1068;52.460;13.528;2024-02-26T05:02:22;8.73;;;5.90;;
2123;SDS011;1068;52.460;13.528;2024-02-26T05:04:49;5.38;;;4.88;;
2123;SDS011;1068;52.460;13.528;2024-02-26T05:07:16;6.13;;;5.13;;
2123;SDS011;1068;52.460;13.528;2024-02-26T05:09:44;8.02;;;5.03;;
2123;SDS011;1068;52.460;13.528;2024-02-26T05:12:13;8.75;;;5.75;;
2123;SDS011;1068;52.460;13.528;2024-02-26T05:14:40;5.90;;;5.20;;
2123;SDS011;1068;52.460;13.528;2024-02-26T05:17:07;5.90;;;5.32;;
2123;SDS011;1068;52.460;13.528;2024-02-26T05:19:34;6.45;;;4.97;;
2123;SDS011;1068;52.460;13.528;2024-02-26T05:22:01;8.95;;;6.93;;
2123;SDS011;1068;52.460;13.528;2024-02-26T05:24:28;10.40;;;6.25;;
2123;SDS011;1068;52.460;13.528;2024-02-26T05:26:55;5.82;;;5.32;;
2123;SDS011;1068;52.460;13.528;2024-02-26T05:29:23;7.05;;;5.93;;
2123;SDS011;1068;52.460;13.528;2024-02-26T05:31:50;6.60;;;5.30;;
2123;SDS011;1068;52.460;13.528;2024-02-26T05:34:19;9.40;;;5.65;;
2123;SDS011;1068;52.460;13.528;2024-02-26T05:36:47;6.53;;;5.70;;
2123;SDS011;1068;52.460;13.528;2024-02-26T05:39:14;10.15;;;6.03;;
2123;SDS011;1068;52.460;13.528;2024-02-26T05:41:41;7.97;;;7.13;;
2123;SDS011;1068;52.460;13.528;2024-02-26T05:44:08;10.10;;;6.55;;
2123;SDS011;1068;52.460;13.528;2024-02-26T05:46:36;5.88;;;5.38;;
2123;SDS011;1068;52.460;13.528;2024-02-26T05:49:03;5.78;;;5.03;;
2123;SDS011;1068;52.460;13.528;2024-02-26T05:51:32;5.25;;;4.80;;
2123;SDS011;1068;52.460;13.528;2024-02-26T05:53:59;6.30;;;4.90;;
2123;SDS011;1068;52.460;13.528;2024-02-26T05:56:26;4.40;;;4.00;;
2123;SDS011;1068;52.460;13.528;2024-02-26T05:58:53;6.00;;;5.40;;
2123;SDS011;1068;52.460;13.528;2024-02-26T06:01:20;8.77;;;6.50;;
2123;SDS011;1068;52.460;13.528;2024-02-26T06:03:48;5.78;;;5.28;;
2123;SDS011;1068;52.460;13.528;2024-02-26T06:06:15;6.57;;;4.70;;
2123;SDS011;1068;52.460;13.528;2024-02-26T06:08:42;6.70;;;5.97;;
2123;SDS011;1068;52.460;13.528;2024-02-26T06:11:09;6.40;;;5.80;;
2123;SDS011;1068;52.460;13.528;2024-02-26T06:13:36;11.02;;;6.00;;
2123;SDS011;1068;52.460;13.528;2024-02-26T06:16:03;7.32;;;6.72;;
2123;SDS011;1068;52.460;13.528;2024-02-26T06:18:30;6.70;;;5.90;;
2123;SDS011;1068;52.460;13.528;2024-02-26T06:20:59;9.52;;;6.70;;
2123;SDS011;1068;52.460;13.528;2024-02-26T06:23:26;9.82;;;6.43;;
2123;SDS011;1068;52.460;13.528;2024-02-26T06:25:53;9.45;;;6.90;;
2123;SDS011;1068;52.460;13.528;2024-02-26T06:28:20;8.23;;;7.10;;
2123;SDS011;1068;52.460;13.528;2024-02-26T06:30:47;13.02;;;8.38;;
2123;SDS011;1068;52.460;13.528;2024-02-26T06:33:15;10.35;;;8.40;;
2123;SDS011;1068;52.460;13.528;2024-02-26T06:35:42;8.50;;;7.70;;
2123;SDS011;1068;52.460;13.528;2024-02-26T06:38:10;8.60;;;7.80;;
2123;SDS011;1068;52.460;13.528;2024-02-26T06:40:38;7.75;;;6.78;;
2123;SDS011;1068;52.460;13.528;2024-02-26T06:43:05;10.88;;;7.20;;
2123;SDS011;1068;52.460;13.528;2024-02-26T06:45:32;12.00;;;7.90;;
2123;SDS011;1068;52.460;13.528;2024-02-26T06:47:59;10.57;;;6.85;;
2123;SDS011;1068;52.460;13.528;2024-02-26T06:50:27;10.10;;;7.28;;
2123;SDS011;1068;52.460;13.528;2024-02-26T06:52:54;13.38;;;6.95;;
2123;SDS011;1068;52.460;13.528;2024-02-26T06:55:22;7.68;;;6.93;;
2123;SDS011;1068;52.460;13.528;2024-02-26T06:57:49;9.38;;;7.80;;
2123;SDS011;1068;52.460;13.528;2024-02-26T07:00:16;8.38;;;7.50;;
2123;SDS011;1068;52.460;13.528;2024-02-26T07:02:43;8.70;;;7.90;;
2123;SDS011;1068;52.460;13.528;2024-02-26T07:05:10;11.38;;;7.28;;
2123;SDS011;1068;52.460;13.528;2024-02-26T07:07:37;15.32;;;8.60;;
2123;SDS011;1068;52.460;13.528;2024-02-26T07:10:05;10.95;;;7.88;;
2123;SDS011;1068;52.460;13.528;2024-02-26T07:12:33;10.50;;;8.05;;
2123;SDS011;1068;52.460;13.528;2024-02-26T07:15:00;13.43;;;9.20;;
2123;SDS011;1068;52.460;13.528;2024-02-26T07:17:27;10.65;;;9.20;;
2123;SDS011;1068;52.460;13.528;2024-02-26T07:19:55;16.05;;;11.95;;
2123;SDS011;1068;52.460;13.528;2024-02-26T07:22:22;13.02;;;11.48;;
2123;SDS011;1068;52.460;13.528;2024-02-26T07:24:49;11.53;;;10.33;;
2123;SDS011;1068;52.460;13.528;2024-02-26T07:27:16;11.75;;;10.23;;
2123;SDS011;1068;52.460;13.528;2024-02-26T07:29:44;11.07;;;9.90;;
2123;SDS011;1068;52.460;13.528;2024-02-26T07:32:11;14.17;;;10.20;;
2123;SDS011;1068;52.460;13.528;2024-02-26T07:34:39;12.13;;;10.83;;
2123;SDS011;1068;52.460;13.528;2024-02-26T07:37:06;11.90;;;10.70;;
2123;SDS011;1068;52.460;13.528;2024-02-26T07:39:33;14.13;;;12.27;;
2123;SDS011;1068;52.460;13.528;2024-02-26T07:42:00;13.50;;;11.00;;
2123;SDS011;1068;52.460;13.528;2024-02-26T07:44:28;15.60;;;12.75;;
2123;SDS011;1068;52.460;13.528;2024-02-26T07:46:56;15.07;;;10.98;;
2123;SDS011;1068;52.460;13.528;2024-02-26T07:49:23;12.37;;;11.10;;
2123;SDS011;1068;52.460;13.528;2024-02-26T07:51:50;16.58;;;12.32;;
2123;SDS011;1068;52.460;13.528;2024-02-26T07:54:17;12.57;;;11.30;;
2123;SDS011;1068;52.460;13.528;2024-02-26T07:56:44;15.20;;;12.30;;
2123;SDS011;1068;52.460;13.528;2024-02-26T07:59:11;17.10;;;12.75;;
2123;SDS011;1068;52.460;13.528;2024-02-26T08:01:38;14.13;;;12.65;;
2123;SDS011;1068;52.460;13.528;2024-02-26T08:04:07;15.50;;;13.30;;
2123;SDS011;1068;52.460;13.528;2024-02-26T08:06:34;16.08;;;14.35;;
2123;SDS011;1068;52.460;13.528;2024-02-26T08:09:01;16.67;;;14.30;;
2123;SDS011;1068;52.460;13.528;2024-02-26T08:11:29;14.95;;;13.45;;
2123;SDS011;1068;52.460;13.528;2024-02-26T08:13:56;17.92;;;13.85;;
2123;SDS011;1068;52.460;13.528;2024-02-26T08:16:24;18.67;;;13.57;;
2123;SDS011;1068;52.460;13.528;2024-02-26T08:18:51;18.60;;;14.75;;
2123;SDS011;1068;52.460;13.528;2024-02-26T08:21:19;18.63;;;13.65;;
2123;SDS011;1068;52.460;13.528;2024-02-26T08:23:46;21.83;;;15.50;;
2123;SDS011;1068;52.460;13.528;2024-02-26T08:26:13;18.23;;;15.10;;
2123;SDS011;1068;52.460;13.528;2024-02-26T08:28:40;18.63;;;13.97;;
2123;SDS011;1068;52.460;13.528;2024-02-26T08:31:07;15.80;;;14.10;;
2123;SDS011;1068;52.460;13.528;2024-02-26T08:33:34;18.50;;;14.77;;
2123;SDS011;1068;52.460;13.528;2024-02-26T08:36:03;21.50;;;16.53;;
2123;SDS011;1068;52.460;13.528;2024-02-26T08:38:32;18.70;;;15.70;;
2123;SDS011;1068;52.460;13.528;2024-02-26T08:41:00;18.10;;;14.93;;
2123;SDS011;1068;52.460;13.528;2024-02-26T08:43:27;18.20;;;14.97;;
2123;SDS011;1068;52.460;13.528;2024-02-26T08:45:54;18.20;;;14.30;;
2123;SDS011;1068;52.460;13.528;2024-02-26T08:48:21;24.13;;;16.20;;
2123;SDS011;1068;52.460;13.528;2024-02-26T08:50:48;22.30;;;16.07;;
2123;SDS011;1068;52.460;13.528;2024-02-26T08:53:15;17.85;;;15.07;;
2123;SDS011;1068;52.460;13.528;2024-02-26T08:55:43;18.17;;;15.45;;
2123;SDS011;1068;52.460;13.528;2024-02-26T08:58:10;23.73;;;16.07;;
2123;SDS011;1068;52.460;13.528;2024-02-26T09:00:37;19.73;;;15.13;;
2123;SDS011;1068;52.460;13.528;2024-02-26T09:03:04;17.58;;;15.70;;
2123;SDS011;1068;52.460;13.528;2024-02-26T09:05:31;17.03;;;13.80;;
2123;SDS011;1068;52.460;13.528;2024-02-26T09:07:58;16.80;;;15.10;;
2123;SDS011;1068;52.460;13.528;2024-02-26T09:10:25;19.27;;;14.80;;
2123;SDS011;1068;52.460;13.528;2024-02-26T09:12:53;17.60;;;15.27;;
2123;SDS011;1068;52.460;13.528;2024-02-26T09:15:21;17.42;;;15.00;;
2123;SDS011;1068;52.460;13.528;2024-02-26T09:17:48;16.93;;;14.23;;
2123;SDS011;1068;52.460;13.528;2024-02-26T09:20:16;18.30;;;14.50;;
2123;SDS011;1068;52.460;13.528;2024-02-26T09:22:45;18.80;;;16.20;;
2123;SDS011;1068;52.460;13.528;2024-02-26T09:25:12;18.57;;;15.57;;
2123;SDS011;1068;52.460;13.528;2024-02-26T09:27:40;19.23;;;15.10;;
2123;SDS011;1068;52.460;13.528;2024-02-26T09:30:10;18.87;;;15.30;;
2123;SDS011;1068;52.460;13.528;2024-02-26T09:32:37;21.87;;;16.27;;
2123;SDS011;1068;52.460;13.528;2024-02-26T09:35:04;14.23;;;12.77;;
2123;SDS011;1068;52.460;13.528;2024-02-26T09:37:31;17.13;;;14.03;;
2123;SDS011;1068;52.460;13.528;2024-02-26T09:39:58;25.57;;;13.80;;
2123;SDS011;1068;52.460;13.528;2024-02-26T09:42:26;19.23;;;14.37;;
2123;SDS011;1068;52.460;13.528;2024-02-26T09:44:53;19.47;;;14.77;;
2123;SDS011;1068;52.460;13.528;2024-02-26T09:47:22;17.43;;;13.60;;
2123;SDS011;1068;52.460;13.528;2024-02-26T09:49:49;16.73;;;13.97;;
2123;SDS011;1068;52.460;13.528;2024-02-26T09:52:18;15.73;;;14.07;;
2123;SDS011;1068;52.460;13.528;2024-02-26T09:54:46;19.47;;;14.70;;
2123;SDS011;1068;52.460;13.528;2024-02-26T09:57:14;16.77;;;13.07;;
2123;SDS011;1068;52.460;13.528;2024-02-26T09:59:42;15.63;;;13.77;;
2123;SDS011;1068;52.460;13.528;2024-02-26T10:02:11;19.47;;;15.80;;
2123;SDS011;1068;52.460;13.528;2024-02-26T10:04:39;15.93;;;12.77;;
2123;SDS011;1068;52.460;13.528;2024-02-26T10:07:07;13.10;;;11.80;;
2123;SDS011;1068;52.460;13.528;2024-02-26T10:09:36;14.90;;;12.73;;
2123;SDS011;1068;52.460;13.528;2024-02-26T10:12:03;13.53;;;11.27;;
2123;SDS011;1068;52.460;13.528;2024-02-26T10:14:31;16.57;;;12.43;;
2123;SDS011;1068;52.460;13.528;2024-02-26T10:16:58;14.80;;;11.30;;
2123;SDS011;1068;52.460;13.528;2024-02-26T10:19:26;13.97;;;10.23;;
2123;SDS011;1068;52.460;13.528;2024-02-26T10:21:57;11.87;;;10.67;;
2123;SDS011;1068;52.460;13.528;2024-02-26T10:24:24;10.77;;;9.67;;
2123;SDS011;1068;52.460;13.528;2024-02-26T10:26:51;13.47;;;9.83;;
2123;SDS011;1068;52.460;13.528;2024-02-26T10:29:18;13.00;;;11.40;;
2123;SDS011;1068;52.460;13.528;2024-02-26T10:31:46;14.10;;;9.60;;
2123;SDS011;1068;52.460;13.528;2024-02-26T10:34:14;10.70;;;9.00;;
2123;SDS011;1068;52.460;13.528;2024-02-26T10:36:41;10.23;;;8.43;;
2123;SDS011;1068;52.460;13.528;2024-02-26T10:39:11;11.83;;;9.53;;
2123;SDS011;1068;52.460;13.528;2024-02-26T10:41:39;8.90;;;8.00;;
2123;SDS011;1068;52.460;13.528;2024-02-26T10:44:08;8.80;;;8.00;;
2123;SDS011;1068;52.460;13.528;2024-02-26T10:46:37;10.60;;;8.67;;
2123;SDS011;1068;52.460;13.528;2024-02-26T10:49:04;7.57;;;6.83;;
2123;SDS011;1068;52.460;13.528;2024-02-26T10:51:33;9.70;;;8.17;;
2123;SDS011;1068;52.460;13.528;2024-02-26T10:54:03;7.40;;;6.70;;
2123;SDS011;1068;52.460;13.528;2024-02-26T10:56:34;8.80;;;7.90;;
2123;SDS011;1068;52.460;13.528;2024-02-26T10:59:02;9.80;;;7.13;;
2123;SDS011;1068;52.460;13.528;2024-02-26T11:01:30;10.93;;;6.80;;
2123;SDS011;1068;52.460;13.528;2024-02-26T11:03:57;7.20;;;6.60;;
2123;SDS011;1068;52.460;13.528;2024-02-26T11:06:26;11.57;;;7.77;;
2123;SDS011;1068;52.460;13.528;2024-02-26T11:08:54;8.37;;;6.43;;
2123;SDS011;1068;52.460;13.528;2024-02-26T11:11:21;6.90;;;6.30;;
2123;SDS011;1068;52.460;13.528;2024-02-26T11:13:49;6.97;;;6.27;;
2123;SDS011;1068;52.460;13.528;2024-02-26T11:16:18;9.13;;;6.10;;
2123;SDS011;1068;52.460;13.528;2024-02-26T11:18:46;8.07;;;7.20;;
2123;SDS011;1068;52.460;13.528;2024-02-26T11:21:14;11.30;;;6.87;;
2123;SDS011;1068;52.460;13.528;2024-02-26T11:23:42;6.53;;;5.90;;
2123;SDS011;1068;52.460;13.528;2024-02-26T11:26:09;8.00;;;6.87;;
2123;SDS011;1068;52.460;13.528;2024-02-26T11:28:37;9.10;;;7.07;;
2123;SDS011;1068;52.460;13.528;2024-02-26T11:31:05;8.90;;;8.00;;
2123;SDS011;1068;52.460;13.528;2024-02-26T11:33:33;8.60;;;7.73;;
2123;SDS011;1068;52.460;13.528;2024-02-26T11:36:01;7.27;;;6.57;;
2123;SDS011;1068;52.460;13.528;2024-02-26T11:38:28;9.47;;;8.57;;
2123;SDS011;1068;52.460;13.528;2024-02-26T11:40:55;8.77;;;7.87;;
2123;SDS011;1068;52.460;13.528;2024-02-26T11:43:23;11.03;;;8.53;;
2123;SDS011;1068;52.460;13.528;2024-02-26T11:45:50;10.27;;;9.27;;
2123;SDS011;1068;52.460;13.528;2024-02-26T11:48:25;8.63;;;7.83;;
2123;SDS011;1068;52.460;13.528;2024-02-26T11:50:55;8.20;;;7.40;;
2123;SDS011;1068;52.460;13.528;2024-02-26T11:53:22;8.90;;;8.10;;
2123;SDS011;1068;52.460;13.528;2024-02-26T11:58:38;8.10;;;7.43;;
2123;SDS011;1068;52.460;13.528;2024-02-26T12:01:05;10.67;;;8.00;;
2123;SDS011;1068;52.460;13.528;2024-02-26T12:03:33;9.00;;;7.70;;
2123;SDS011;1068;52.460;13.528;2024-02-26T12:06:00;9.50;;;8.60;;
2123;SDS011;1068;52.460;13.528;2024-02-26T12:08:27;9.30;;;7.47;;
2123;SDS011;1068;52.460;13.528;2024-02-26T12:10:55;11.07;;;9.67;;
2123;SDS011;1068;52.460;13.528;2024-02-26T12:13:25;11.23;;;8.60;;
2123;SDS011;1068;52.460;13.528;2024-02-26T12:15:56;10.93;;;9.67;;
2123;SDS011;1068;52.460;13.528;2024-02-26T12:18:24;9.63;;;8.73;;
2123;SDS011;1068;52.460;13.528;2024-02-26T12:20:58;10.37;;;8.37;;
2123;SDS011;1068;52.460;13.528;2024-02-26T12:23:26;10.87;;;9.77;;
2123;SDS011;1068;52.460;13.528;2024-02-26T12:25:54;9.93;;;8.93;;
2123;SDS011;1068;52.460;13.528;2024-02-26T12:28:21;10.70;;;9.03;;
2123;SDS011;1068;52.460;13.528;2024-02-26T12:30:47;11.03;;;9.10;;
2123;SDS011;1068;52.460;13.528;2024-02-26T12:33:14;10.37;;;8.97;;
2123;SDS011;1068;52.460;13.528;2024-02-26T12:35:41;10.00;;;8.87;;
2123;SDS011;1068;52.460;13.528;2024-02-26T12:38:10;12.30;;;9.93;;
2123;SDS011;1068;52.460;13.528;2024-02-26T12:40:37;12.10;;;9.63;;
2123;SDS011;1068;52.460;13.528;2024-02-26T12:43:04;10.47;;;9.17;;
2123;SDS011;1068;52.460;13.528;2024-02-26T12:45:31;10.97;;;9.13;;
2123;SDS011;1068;52.460;13.528;2024-02-26T12:47:58;11.57;;;10.33;;
2123;SDS011;1068;52.460;13.528;2024-02-26T12:50:25;14.60;;;12.13;;
2123;SDS011;1068;52.460;13.528;2024-02-26T12:52:52;12.70;;;11.00;;
2123;SDS011;1068;52.460;13.528;2024-02-26T12:55:21;13.33;;;12.00;;
2123;SDS011;1068;52.460;13.528;2024-02-26T12:57:48;12.67;;;11.37;;
2123;SDS011;1068;52.460;13.528;2024-02-26T13:00:16;13.57;;;10.90;;
2123;SDS011;1068;52.460;13.528;2024-02-26T13:02:43;13.47;;;11.87;;
2123;SDS011;1068;52.460;13.528;2024-02-26T13:05:12;12.80;;;11.50;;
2123;SDS011;1068;52.460;13.528;2024-02-26T13:07:42;14.40;;;12.20;;
2123;SDS011;1068;52.460;13.528;2024-02-26T13:10:11;15.27;;;12.90;;
2123;SDS011;1068;52.460;13.528;2024-02-26T13:12:43;12.97;;;11.57;;
2123;SDS011;1068;52.460;13.528;2024-02-26T13:15:14;14.23;;;12.70;;
2123;SDS011;1068;52.460;13.528;2024-02-26T13:17:41;15.03;;;11.90;;
2123;SDS011;1068;52.460;13.528;2024-02-26T13:20:08;14.60;;;12.90;;
2123;SDS011;1068;52.460;13.528;2024-02-26T13:22:35;14.97;;;12.80;;
2123;SDS011;1068;52.460;13.528;2024-02-26T13:25:03;15.80;;;12.33;;
2123;SDS011;1068;52.460;13.528;2024-02-26T13:27:32;15.73;;;13.00;;
2123;SDS011;1068;52.460;13.528;2024-02-26T13:30:04;15.30;;;12.83;;
2123;SDS011;1068;52.460;13.528;2024-02-26T13:32:33;15.63;;;13.47;;
2123;SDS011;1068;52.460;13.528;2024-02-26T13:35:07;18.23;;;12.20;;
2123;SDS011;1068;52.460;13.528;2024-02-26T13:37:34;14.77;;;12.77;;
2123;SDS011;1068;52.460;13.528;2024-02-26T13:40:04;15.27;;;13.67;;
2123;SDS011;1068;52.460;13.528;2024-02-26T13:42:32;16.13;;;14.40;;
2123;SDS011;1068;52.460;13.528;2024-02-26T13:44:59;16.57;;;14.70;;
2123;SDS011;1068;52.460;13.528;2024-02-26T13:47:27;15.87;;;14.30;;
2123;SDS011;1068;52.460;13.528;2024-02-26T13:49:54;15.07;;;12.97;;
2123;SDS011;1068;52.460;13.528;2024-02-26T13:52:22;15.33;;;13.83;;
2123;SDS011;1068;52.460;13.528;2024-02-26T13:54:49;16.93;;;14.80;;
2123;SDS011;1068;52.460;13.528;2024-02-26T13:57:16;18.50;;;14.60;;
2123;SDS011;1068;52.460;13.528;2024-02-26T13:59:43;18.33;;;14.17;;
2123;SDS011;1068;52.460;13.528;2024-02-26T14:02:10;15.80;;;14.17;;
2123;SDS011;1068;52.460;13.528;2024-02-26T14:04:38;17.50;;;14.10;;
2123;SDS011;1068;52.460;13.528;2024-02-26T14:07:05;18.07;;;14.73;;
2123;SDS011;1068;52.460;13.528;2024-02-26T14:09:32;18.47;;;14.67;;
2123;SDS011;1068;52.460;13.528;2024-02-26T14:11:59;17.30;;;14.80;;
2123;SDS011;1068;52.460;13.528;2024-02-26T14:14:27;17.80;;;14.83;;
2123;SDS011;1068;52.460;13.528;2024-02-26T14:16:54;19.53;;;15.20;;
2123;SDS011;1068;52.460;13.528;2024-02-26T14:19:21;16.73;;;14.87;;
2123;SDS011;1068;52.460;13.528;2024-02-26T14:21:49;16.63;;;13.00;;
2123;SDS011;1068;52.460;13.528;2024-02-26T14:24:16;16.57;;;14.77;;
2123;SDS011;1068;52.460;13.528;2024-02-26T14:26:43;15.87;;;14.17;;
2123;SDS011;1068;52.460;13.528;2024-02-26T14:29:10;18.87;;;13.50;;
2123;SDS011;1068;52.460;13.528;2024-02-26T14:31:37;15.80;;;14.17;;
2123;SDS011;1068;52.460;13.528;2024-02-26T14:34:04;17.40;;;14.90;;
2123;SDS011;1068;52.460;13.528;2024-02-26T14:36:32;16.30;;;14.43;;
2123;SDS011;1068;52.460;13.528;2024-02-26T14:39:00;19.57;;;15.00;;
2123;SDS011;1068;52.460;13.528;2024-02-26T14:41:27;15.53;;;13.93;;
2123;SDS011;1068;52.460;13.528;2024-02-26T14:43:54;15.67;;;14.03;;
2123;SDS011;1068;52.460;13.528;2024-02-26T14:46:21;16.17;;;13.33;;
2123;SDS011;1068;52.460;13.528;2024-02-26T14:48:48;13.97;;;12.50;;
2123;SDS011;1068;52.460;13.528;2024-02-26T14:51:15;18.07;;;13.70;;
2123;SDS011;1068;52.460;13.528;2024-02-26T14:53:42;14.83;;;12.73;;